createdAt,value
2019-04-25T00:01:54.861Z,12.42
2019-04-25T00:04:23.241Z,12.55
2019-04-25T00:06:52.154Z,12.64
2019-04-25T00:09:22.017Z,12.49
2019-04-25T00:11:51.914Z,12.46
2019-04-25T00:14:22.594Z,12.34
2019-04-25T00:16:51.833Z,12.45
2019-04-25T00:19:21.892Z,12.45
2019-04-25T00:22:18.465Z,12.44
2019-04-25T00:24:55.549Z,12.44
2019-04-25T00:27:24.151Z,12.30
2019-04-25T00:29:52.945Z,12.25
2019-04-25T00:32:21.689Z,12.07
2019-04-25T00:34:49.884Z,12.09
2019-04-25T00:37:18.081Z,12.08
2019-04-25T00:39:47.087Z,12.04
2019-04-25T00:42:15.310Z,12.03
2019-04-25T00:44:44.845Z,11.95
2019-04-25T00:47:13.478Z,11.91
2019-04-25T00:49:43.845Z,11.82
2019-04-25T00:52:12.148Z,11.78
2019-04-25T00:54:41.416Z,11.66
2019-04-25T00:57:12.114Z,11.60
2019-04-25T00:59:58.512Z,11.49
2019-04-25T01:02:40.211Z,11.48
2019-04-25T01:05:08.702Z,11.50
2019-04-25T01:07:36.917Z,11.37
2019-04-25T01:10:06.588Z,11.07
2019-04-25T01:12:34.834Z,11.15
2019-04-25T01:15:03.782Z,11.23
2019-04-25T01:17:32.078Z,11.16
2019-04-25T01:20:00.327Z,10.65
2019-04-25T01:22:28.556Z,9.41
2019-04-25T01:24:56.732Z,10.09
2019-04-25T01:27:24.925Z,10.49
2019-04-25T01:29:54.456Z,10.44
2019-04-25T01:32:30.656Z,10.50
2019-04-25T01:35:06.512Z,10.33
2019-04-25T01:37:54.843Z,10.39
2019-04-25T01:40:43.928Z,10.28
2019-04-25T01:43:19.520Z,10.04
2019-04-25T01:45:48.240Z,10.14
2019-04-25T01:48:16.708Z,10.24
2019-04-25T01:50:44.958Z,10.39
2019-04-25T01:53:14.599Z,10.36
2019-04-25T01:55:53.623Z,10.07
2019-04-25T01:58:13.740Z,9.97
2019-04-25T02:00:46.091Z,9.97
2019-04-25T02:03:14.269Z,9.92
2019-04-25T02:05:43.860Z,9.91
2019-04-25T02:08:14.172Z,9.99
2019-04-25T02:10:44.052Z,9.91
2019-04-25T02:15:48.522Z,9.82
2019-04-25T02:18:16.805Z,9.75
2019-04-25T02:20:45.017Z,9.72
2019-04-25T02:23:14.131Z,8.98
2019-04-25T02:25:44.270Z,9.19
2019-04-25T02:28:13.964Z,8.79
2019-04-25T02:30:45.134Z,9.34
2019-04-25T02:33:14.244Z,8.80
2019-04-25T02:35:43.970Z,8.96
2019-04-25T02:38:16.631Z,9.26
2019-04-25T02:40:45.227Z,9.31
2019-04-25T02:43:14.284Z,9.23
2019-04-25T02:46:01.587Z,9.23
2019-04-25T02:48:48.888Z,8.96
2019-04-25T02:51:36.204Z,8.40
2019-04-25T02:54:07.657Z,9.01
2019-04-25T02:56:38.462Z,8.50
2019-04-25T02:59:07.005Z,8.68
2019-04-25T03:01:34.515Z,9.02
2019-04-25T03:04:04.918Z,8.66
2019-04-25T03:06:34.855Z,8.54
2019-04-25T03:09:04.009Z,8.72
2019-04-25T03:11:34.568Z,8.74
2019-04-25T03:14:02.354Z,8.81
2019-04-25T03:16:30.529Z,9.11
2019-04-25T03:19:17.704Z,8.61
2019-04-25T03:21:47.238Z,8.42
2019-04-25T03:24:16.857Z,8.23
2019-04-25T03:26:45.185Z,8.35
2019-04-25T03:29:13.714Z,8.68
2019-04-25T03:31:44.713Z,7.50
2019-04-25T03:34:16.049Z,7.22
2019-04-25T03:36:43.717Z,7.28
2019-04-25T03:39:14.456Z,7.05
2019-04-25T03:41:42.046Z,7.65
2019-04-25T03:44:10.203Z,8.40
2019-04-25T03:46:38.433Z,7.41
2019-04-25T03:49:07.548Z,6.89
2019-04-25T03:51:35.927Z,7.07
2019-04-25T03:54:04.870Z,6.90
2019-04-25T03:56:33.977Z,6.89
2019-04-25T03:59:04.817Z,7.16
2019-04-25T04:01:32.149Z,7.53
2019-04-25T04:04:00.343Z,7.44
2019-04-25T04:06:28.492Z,7.48
2019-04-25T04:08:56.677Z,7.78
2019-04-25T04:11:24.915Z,7.64
2019-04-25T04:13:53.549Z,8.09
2019-04-25T04:16:25.369Z,7.62
2019-04-25T04:18:55.831Z,8.06
2019-04-25T04:21:41.080Z,7.82
2019-04-25T04:24:16.277Z,7.49
2019-04-25T04:27:05.349Z,7.31
2019-04-25T04:29:33.450Z,7.07
2019-04-25T04:32:03.021Z,7.55
2019-04-25T04:34:31.295Z,7.36
2019-04-25T04:36:59.473Z,7.68
2019-04-25T04:39:27.740Z,7.67
2019-04-25T04:41:55.959Z,7.57
2019-04-25T04:44:24.234Z,7.72
2019-04-25T04:46:53.801Z,7.44
2019-04-25T04:49:23.507Z,7.62
2019-04-25T04:51:52.039Z,7.65
2019-04-25T04:54:20.187Z,7.66
2019-04-25T04:56:48.481Z,7.95
2019-04-25T04:59:16.660Z,8.05
2019-04-25T05:02:03.859Z,8.14
2019-04-25T05:04:43.514Z,8.40
2019-04-25T05:07:30.828Z,8.45
2019-04-25T05:09:59.306Z,8.50
2019-04-25T05:12:27.742Z,8.64
2019-04-25T05:14:56.036Z,8.69
2019-04-25T05:17:25.434Z,8.76
2019-04-25T05:19:54.007Z,8.84
2019-04-25T05:22:23.925Z,8.99
2019-04-25T05:24:53.485Z,9.11
2019-04-25T05:27:36.034Z,9.23
2019-04-25T05:29:51.724Z,9.28
2019-04-25T05:32:19.898Z,9.44
2019-04-25T05:34:49.406Z,9.57
2019-04-25T05:37:17.683Z,9.76
2019-04-25T05:39:45.950Z,9.85
2019-04-25T05:42:48.712Z,9.90
2019-04-25T05:45:18.650Z,9.99
2019-04-25T05:47:46.382Z,10.31
2019-04-25T05:50:15.704Z,10.41
2019-04-25T05:52:45.816Z,10.47
2019-04-25T05:55:14.268Z,10.74
2019-04-25T05:57:49.642Z,10.82
2019-04-25T06:00:15.102Z,11.01
2019-04-25T06:02:45.847Z,11.32
2019-04-25T06:05:13.310Z,11.16
2019-04-25T06:07:43.132Z,11.43
2019-04-25T06:10:30.143Z,11.66
2019-04-25T06:13:29.378Z,11.71
2019-04-25T06:16:05.725Z,11.71
2019-04-25T06:18:39.794Z,11.94
2019-04-25T06:21:09.673Z,12.03
2019-04-25T06:24:05.900Z,12.16
2019-04-25T06:26:41.334Z,10.91
2019-04-25T06:29:09.480Z,12.46
2019-04-25T06:31:37.711Z,12.66
2019-04-25T06:34:05.908Z,12.59
2019-04-25T06:36:35.314Z,12.87
2019-04-25T06:39:04.106Z,13.03
2019-04-25T06:41:34.044Z,13.13
2019-04-25T06:44:04.222Z,13.27
2019-04-25T06:46:53.542Z,13.48
2019-04-25T06:49:27.865Z,13.67
2019-04-25T06:51:56.032Z,13.83
2019-04-25T06:54:25.790Z,13.71
2019-04-25T06:56:54.170Z,13.95
2019-04-25T06:59:25.539Z,14.14
2019-04-25T07:01:54.097Z,14.25
2019-04-25T07:04:22.765Z,14.16
2019-04-25T07:06:51.423Z,14.39
2019-04-25T07:09:19.557Z,14.46
2019-04-25T07:11:48.236Z,14.49
2019-04-25T07:14:16.413Z,14.78
2019-04-25T07:16:44.539Z,14.96
2019-04-25T07:19:14.680Z,15.00
2019-04-25T07:21:44.271Z,15.30
2019-04-25T07:24:14.139Z,15.57
2019-04-25T07:27:07.622Z,15.65
2019-04-25T07:29:48.137Z,15.89
2019-04-25T07:32:28.102Z,15.80
2019-04-25T07:34:55.172Z,16.03
2019-04-25T07:37:24.226Z,16.03
2019-04-25T07:39:54.110Z,16.05
2019-04-25T07:42:23.565Z,16.19
2019-04-25T07:44:53.416Z,16.21
2019-04-25T07:47:21.993Z,16.35
2019-04-25T07:49:50.721Z,16.33
2019-04-25T07:52:18.877Z,16.35
2019-04-25T07:54:47.059Z,16.31
2019-04-25T07:57:15.215Z,16.71
2019-04-25T07:59:43.688Z,16.71
2019-04-25T08:02:13.320Z,16.87
2019-04-25T08:04:41.591Z,17.34
2019-04-25T08:07:09.751Z,17.57
2019-04-25T08:09:38.072Z,17.46
2019-04-25T08:12:06.266Z,17.28
2019-04-25T08:14:40.336Z,18.01
2019-04-25T08:17:09.333Z,18.35
2019-04-25T08:19:37.611Z,17.83
2019-04-25T08:22:06.607Z,18.44
2019-04-25T08:24:37.248Z,18.46
2019-04-25T08:27:05.844Z,18.52
2019-04-25T08:29:36.347Z,18.91
2019-04-25T08:32:04.587Z,18.74
2019-04-25T08:34:34.399Z,18.92
2019-04-25T08:37:04.096Z,18.80
2019-04-25T08:39:34.407Z,19.25
2019-04-25T08:42:03.461Z,19.11
2019-04-25T08:44:32.458Z,19.62
2019-04-25T08:47:01.227Z,19.84
2019-04-25T08:49:42.931Z,19.61
2019-04-25T08:52:11.025Z,19.74
2019-04-25T08:54:57.474Z,18.83
2019-04-25T08:57:44.037Z,19.38
2019-04-25T09:00:27.352Z,19.76
2019-04-25T09:02:59.676Z,18.84
2019-04-25T09:05:47.058Z,19.96
2019-04-25T09:08:15.163Z,19.79
2019-04-25T09:10:44.793Z,19.49
2019-04-25T09:13:13.506Z,20.28
2019-04-25T09:15:41.796Z,20.03
2019-04-25T09:18:10.026Z,20.13
2019-04-25T09:20:40.840Z,20.48
2019-04-25T09:23:08.088Z,20.49
2019-04-25T09:25:36.816Z,20.82
2019-04-25T09:28:05.102Z,21.24
2019-04-25T09:30:34.945Z,21.26
2019-04-25T09:33:04.608Z,20.52
2019-04-25T09:35:33.538Z,21.26
2019-04-25T09:38:03.388Z,19.80
2019-04-25T09:40:31.622Z,20.93
2019-04-25T09:42:59.796Z,21.13
2019-04-25T09:45:37.614Z,21.55
2019-04-25T09:48:13.259Z,21.55
2019-04-25T09:50:46.687Z,21.87
2019-04-25T09:53:23.531Z,22.17
2019-04-25T09:55:58.254Z,22.73
2019-04-25T09:58:37.971Z,22.43
2019-04-25T10:01:10.942Z,21.60
2019-04-25T10:03:39.514Z,22.31
2019-04-25T10:06:07.882Z,23.07
2019-04-25T10:08:36.989Z,22.01
2019-04-25T10:11:05.617Z,23.18
2019-04-25T10:13:33.897Z,21.92
2019-04-25T10:16:09.370Z,22.50
2019-04-25T10:18:39.151Z,22.73
2019-04-25T10:21:10.828Z,22.68
2019-04-25T10:23:39.904Z,23.04
2019-04-25T10:26:09.316Z,22.96
2019-04-25T10:28:38.733Z,23.44
2019-04-25T10:31:07.921Z,23.22
2019-04-25T10:33:36.086Z,23.39
2019-04-25T10:36:06.010Z,23.65
2019-04-25T10:38:35.123Z,23.24
2019-04-25T10:41:04.195Z,22.82
2019-04-25T10:43:34.085Z,24.34
2019-04-25T10:46:03.491Z,23.56
2019-04-25T10:48:32.359Z,25.00
2019-04-25T10:51:00.675Z,24.57
2019-04-25T10:53:29.003Z,23.83
2019-04-25T10:55:57.404Z,24.63
2019-04-25T10:58:25.609Z,25.23
2019-04-25T11:00:53.731Z,25.55
2019-04-25T11:03:54.412Z,25.13
2019-04-25T11:06:27.202Z,25.27
2019-04-25T11:08:56.438Z,25.67
2019-04-25T11:11:24.826Z,24.50
2019-04-25T11:13:55.653Z,24.30
2019-04-25T11:16:24.263Z,25.24
2019-04-25T11:18:53.136Z,25.14
2019-04-25T11:21:24.150Z,25.68
2019-04-25T11:23:55.312Z,24.91
2019-04-25T11:26:22.606Z,23.64
2019-04-25T11:28:51.018Z,24.89
2019-04-25T11:31:25.383Z,25.39
2019-04-25T11:33:54.513Z,26.01
2019-04-25T11:36:24.764Z,25.63
2019-04-25T11:39:27.163Z,25.89
2019-04-25T11:41:55.686Z,26.77
2019-04-25T11:44:24.571Z,25.51
2019-04-25T11:46:53.222Z,25.75
2019-04-25T11:49:21.420Z,25.64
2019-04-25T11:51:50.271Z,26.29
2019-04-25T11:54:18.664Z,26.95
2019-04-25T11:56:47.328Z,28.00
2019-04-25T11:59:15.817Z,26.05
2019-04-25T12:01:45.375Z,26.30
2019-04-25T12:04:14.910Z,27.63
2019-04-25T12:06:47.036Z,27.50
2019-04-25T12:09:13.885Z,27.11
2019-04-25T12:11:44.539Z,26.35
2019-04-25T12:14:12.000Z,25.68
2019-04-25T12:16:40.270Z,28.19
2019-04-25T12:19:08.653Z,28.19
2019-04-25T12:21:36.781Z,28.53
2019-04-25T12:24:05.865Z,29.03
2019-04-25T12:26:34.315Z,27.98
2019-04-25T12:29:04.254Z,27.64
2019-04-25T12:31:34.071Z,27.43
2019-04-25T12:34:03.443Z,26.95
2019-04-25T12:36:31.772Z,28.62
2019-04-25T12:38:59.913Z,29.51
2019-04-25T12:41:28.290Z,30.08
2019-04-25T12:44:21.845Z,29.78
2019-04-25T12:46:50.815Z,30.41
2019-04-25T12:49:19.075Z,29.92
2019-04-25T12:51:47.769Z,31.19
2019-04-25T12:54:16.138Z,29.51
2019-04-25T12:56:44.344Z,27.96
2019-04-25T12:59:12.554Z,29.46
2019-04-25T13:01:40.826Z,30.55
2019-04-25T13:04:09.390Z,28.45
2019-04-25T13:06:37.582Z,27.71
2019-04-25T13:09:07.481Z,30.31
2019-04-25T13:11:35.657Z,30.80
2019-04-25T13:14:03.955Z,30.44
2019-04-25T13:16:32.145Z,30.11
2019-04-25T13:19:13.598Z,30.39
2019-04-25T13:21:30.302Z,30.55
2019-04-25T13:23:58.482Z,30.95
2019-04-25T13:26:29.799Z,31.28
2019-04-25T13:29:09.442Z,30.93
2019-04-25T13:31:55.929Z,29.74
2019-04-25T13:34:36.237Z,27.90
2019-04-25T13:37:01.883Z,27.86
2019-04-25T13:39:30.314Z,28.61
2019-04-25T13:42:00.668Z,28.63
2019-04-25T13:44:28.398Z,29.29
2019-04-25T13:46:56.626Z,27.76
2019-04-25T13:49:25.060Z,28.76
2019-04-25T13:51:53.454Z,30.18
2019-04-25T13:54:23.752Z,29.71
2019-04-25T13:56:53.372Z,29.78
2019-04-25T13:59:21.823Z,29.23
2019-04-25T14:01:50.058Z,31.05
2019-04-25T14:04:18.613Z,31.22
2019-04-25T14:06:46.899Z,31.06
2019-04-25T14:09:18.193Z,31.06
2019-04-25T14:11:46.356Z,31.22
2019-04-25T14:14:14.560Z,31.64
2019-04-25T14:16:59.021Z,31.34
2019-04-25T14:19:46.310Z,31.24
2019-04-25T14:22:14.490Z,30.30
2019-04-25T14:24:44.044Z,31.16
2019-04-25T14:27:13.652Z,29.39
2019-04-25T14:29:41.905Z,30.57
2019-04-25T14:32:11.876Z,30.49
2019-04-25T14:34:39.990Z,28.37
2019-04-25T14:37:08.317Z,29.42
2019-04-25T14:39:36.491Z,29.96
2019-04-25T14:42:04.755Z,30.42
2019-04-25T14:44:33.562Z,29.72
2019-04-25T14:47:02.051Z,29.74
2019-04-25T14:49:30.554Z,29.85
2019-04-25T14:51:58.813Z,30.43
2019-04-25T14:54:35.661Z,30.33
2019-04-25T14:57:25.954Z,30.36
2019-04-25T14:59:54.367Z,29.83
2019-04-25T15:02:23.889Z,29.14
2019-04-25T15:04:52.036Z,29.83
2019-04-25T15:07:20.226Z,29.78
2019-04-25T15:09:48.405Z,29.72
2019-04-25T15:12:18.115Z,27.54
2019-04-25T15:14:46.314Z,27.50
2019-04-25T15:17:14.567Z,28.70
2019-04-25T15:19:42.678Z,27.82
2019-04-25T15:22:10.934Z,28.86
2019-04-25T15:24:39.057Z,28.69
2019-04-25T15:27:07.331Z,27.26
2019-04-25T15:29:35.463Z,28.68
2019-04-25T15:32:04.230Z,28.94
2019-04-25T15:34:39.237Z,28.63
2019-04-25T15:37:20.363Z,28.08
2019-04-25T15:39:55.521Z,28.03
2019-04-25T15:42:41.911Z,28.11
2019-04-25T15:45:38.695Z,27.86
2019-04-25T15:48:08.184Z,27.97
2019-04-25T15:50:36.352Z,27.78
2019-04-25T15:53:04.683Z,27.82
2019-04-25T15:55:33.082Z,27.44
2019-04-25T15:58:01.403Z,27.86
2019-04-25T16:00:35.543Z,27.36
2019-04-25T16:03:04.107Z,28.01
2019-04-25T16:05:32.286Z,27.33
2019-04-25T16:08:00.521Z,27.24
2019-04-25T16:10:29.800Z,26.34
2019-04-25T16:12:58.061Z,25.03
2019-04-25T16:15:27.588Z,25.12
2019-04-25T16:17:54.873Z,26.18
2019-04-25T16:20:23.157Z,26.40
2019-04-25T16:22:51.291Z,26.88
2019-04-25T16:25:19.642Z,26.40
2019-04-25T16:27:47.825Z,26.06
2019-04-25T16:30:16.066Z,25.81
2019-04-25T16:32:44.276Z,26.68
2019-04-25T16:35:12.483Z,26.77
2019-04-25T16:37:41.342Z,25.84
2019-04-25T16:40:09.876Z,26.37
2019-04-25T16:42:38.227Z,26.37
2019-04-25T16:45:07.672Z,26.44
2019-04-25T16:47:35.875Z,25.94
2019-04-25T16:50:04.050Z,25.66
2019-04-25T16:52:32.224Z,25.98
2019-04-25T16:55:00.376Z,25.80
2019-04-25T16:57:28.606Z,25.51
2019-04-25T16:59:56.907Z,25.45
2019-04-25T17:02:35.302Z,25.67
2019-04-25T17:04:58.498Z,25.79
2019-04-25T17:07:27.134Z,25.77
2019-04-25T17:09:55.256Z,25.41
2019-04-25T17:12:24.036Z,25.58
2019-04-25T17:15:11.174Z,24.48
2019-04-25T17:17:45.699Z,24.85
2019-04-25T17:20:22.403Z,24.81
2019-04-25T17:22:50.600Z,24.68
2019-04-25T17:25:19.356Z,24.84
2019-04-25T17:27:47.624Z,24.77
2019-04-25T17:30:16.187Z,24.46
2019-04-25T17:33:06.237Z,24.81
2019-04-25T17:35:48.258Z,24.81
2019-04-25T17:38:20.199Z,24.85
2019-04-25T17:40:48.882Z,24.82
2019-04-25T17:43:17.144Z,24.71
2019-04-25T17:45:45.361Z,24.56
2019-04-25T17:48:13.556Z,24.39
2019-04-25T17:50:41.820Z,24.45
2019-04-25T17:53:10.109Z,24.39
2019-04-25T17:55:38.253Z,24.35
2019-04-25T17:58:06.439Z,24.16
2019-04-25T18:00:37.815Z,24.19
2019-04-25T18:03:08.344Z,23.86
2019-04-25T18:05:36.646Z,23.76
2019-04-25T18:08:05.032Z,23.78
2019-04-25T18:10:34.287Z,23.61
2019-04-25T18:13:02.638Z,23.19
2019-04-25T18:15:48.720Z,23.35
2019-04-25T18:18:37.037Z,23.28
2019-04-25T18:21:05.340Z,22.61
2019-04-25T18:24:04.678Z,22.63
2019-04-25T18:26:54.838Z,22.80
2019-04-25T18:29:23.211Z,22.67
2019-04-25T18:31:51.458Z,22.44
2019-04-25T18:34:29.082Z,21.98
2019-04-25T18:37:18.934Z,22.38
2019-04-25T18:39:52.595Z,21.85
2019-04-25T18:42:39.956Z,22.03
2019-04-25T18:45:10.739Z,21.77
2019-04-25T18:47:39.097Z,21.63
2019-04-25T18:50:09.232Z,21.83
2019-04-25T18:52:56.441Z,21.79
2019-04-25T18:55:34.210Z,21.85
2019-04-25T18:58:19.612Z,21.46
2019-04-25T19:01:00.745Z,21.60
2019-04-25T19:03:48.009Z,21.50
2019-04-25T19:06:18.049Z,21.53
2019-04-25T19:08:47.082Z,21.00
2019-04-25T19:11:15.559Z,21.19
2019-04-25T19:13:43.851Z,21.07
2019-04-25T19:16:12.114Z,20.12
2019-04-25T19:18:41.448Z,19.25
2019-04-25T19:21:10.480Z,18.43
2019-04-25T19:23:39.390Z,18.94
2019-04-25T19:26:07.818Z,19.25
2019-04-25T19:28:36.222Z,18.33
2019-04-25T19:31:04.591Z,18.45
2019-04-25T19:33:35.908Z,17.83
2019-04-25T19:36:03.143Z,18.67
2019-04-25T19:38:31.489Z,18.72
2019-04-25T19:41:18.618Z,17.83
2019-04-25T19:43:56.400Z,19.01
2019-04-25T19:46:42.853Z,18.51
2019-04-25T19:49:11.195Z,19.23
2019-04-25T19:51:39.419Z,18.90
2019-04-25T19:54:07.595Z,18.16
2019-04-25T19:56:36.082Z,18.59
2019-04-25T19:59:04.655Z,18.97
2019-04-25T20:01:32.766Z,19.22
2019-04-25T20:04:35.098Z,19.04
2019-04-25T20:07:28.005Z,19.16
2019-04-25T20:10:20.902Z,18.86
2019-04-25T20:12:52.169Z,18.41
2019-04-25T20:15:20.965Z,18.58
2019-04-25T20:17:49.802Z,18.61
2019-04-25T20:20:18.543Z,18.64
2019-04-25T20:22:48.160Z,18.27
2019-04-25T20:25:16.960Z,17.56
2019-04-25T20:27:46.648Z,18.28
2019-04-25T20:30:15.431Z,18.02
2019-04-25T20:32:43.582Z,18.04
2019-04-25T20:35:11.928Z,18.03
2019-04-25T20:37:40.089Z,17.90
2019-04-25T20:40:08.790Z,18.18
2019-04-25T20:42:37.105Z,17.56
2019-04-25T20:45:06.956Z,17.63
2019-04-25T20:47:35.132Z,17.51
2019-04-25T20:50:03.752Z,17.55
2019-04-25T20:52:32.011Z,17.26
2019-04-25T20:55:00.538Z,17.12
2019-04-25T20:57:28.686Z,16.55
2019-04-25T20:59:58.076Z,16.37
2019-04-25T21:02:26.884Z,16.66
2019-04-25T21:04:54.992Z,16.57
2019-04-25T21:07:23.139Z,16.19
2019-04-25T21:09:51.862Z,17.01
2019-04-25T21:12:20.493Z,16.83
2019-04-25T21:15:10.807Z,17.55
2019-04-25T21:17:58.369Z,18.11
2019-04-25T21:20:26.763Z,17.85
2019-04-25T21:22:55.823Z,18.05
2019-04-25T21:25:24.363Z,18.15
2019-04-25T21:27:52.590Z,18.10
2019-04-25T21:30:20.886Z,17.77
2019-04-25T21:32:53.680Z,17.21
2019-04-25T21:35:23.304Z,16.75
2019-04-25T21:37:52.176Z,16.31
2019-04-25T21:40:29.924Z,16.09
2019-04-25T21:43:03.866Z,16.00
2019-04-25T21:45:32.348Z,15.88
2019-04-25T21:48:01.157Z,15.64
2019-04-25T21:50:29.651Z,15.65
2019-04-25T21:52:59.180Z,15.66
2019-04-25T21:55:27.598Z,15.66
2019-04-25T21:57:56.338Z,15.41
2019-04-25T22:00:42.416Z,15.19
2019-04-25T22:03:11.855Z,15.45
2019-04-25T22:05:40.335Z,15.32
2019-04-25T22:08:08.640Z,15.37
2019-04-25T22:10:36.868Z,15.37
2019-04-25T22:13:11.996Z,14.88
2019-04-25T22:15:35.024Z,15.29
2019-04-25T22:18:04.433Z,15.35
2019-04-25T22:20:32.602Z,15.32
2019-04-25T22:23:00.727Z,14.98
2019-04-25T22:25:29.132Z,15.39
2019-04-25T22:27:58.716Z,15.35
2019-04-25T22:30:27.384Z,15.36
2019-04-25T22:33:03.520Z,14.81
2019-04-25T22:35:50.816Z,15.13
2019-04-25T22:38:19.189Z,15.43
2019-04-25T22:40:47.363Z,15.13
2019-04-25T22:43:16.625Z,14.89
2019-04-25T22:45:45.107Z,14.57
2019-04-25T22:48:13.400Z,14.56
2019-04-25T22:50:41.892Z,14.44
2019-04-25T22:53:21.519Z,14.88
2019-04-25T22:55:40.041Z,14.95
2019-04-25T22:58:08.245Z,15.39
2019-04-25T23:00:37.702Z,14.91
2019-04-25T23:03:11.452Z,14.66
2019-04-25T23:05:49.447Z,15.14
2019-04-25T23:08:20.731Z,15.09
2019-04-25T23:10:48.997Z,14.70
2019-04-25T23:13:17.310Z,14.62
2019-04-25T23:15:45.570Z,14.86
2019-04-25T23:18:14.091Z,14.74
2019-04-25T23:20:42.406Z,14.90
2019-04-25T23:23:11.722Z,14.89
2019-04-25T23:26:00.442Z,15.20
2019-04-25T23:28:32.517Z,15.27
2019-04-25T23:31:06.514Z,14.73
2019-04-25T23:33:34.785Z,14.60
2019-04-25T23:36:03.090Z,14.68
2019-04-25T23:38:31.395Z,14.30
2019-04-25T23:40:59.729Z,14.72
2019-04-25T23:43:28.024Z,14.73
2019-04-25T23:45:56.229Z,14.97
2019-04-25T23:48:24.520Z,14.94
2019-04-25T23:50:53.717Z,15.03
2019-04-25T23:53:21.921Z,14.92
2019-04-25T23:55:50.447Z,15.02
2019-04-25T23:58:18.641Z,15.01
